createdAt,value
2023-02-24T00:00:37.876Z,8.32
2023-02-24T00:03:11.784Z,13.57
2023-02-24T00:05:44.445Z,10.30
2023-02-24T00:08:13.797Z,7.88
2023-02-24T00:10:41.858Z,14.82
2023-02-24T00:13:11.992Z,10.48
2023-02-24T00:15:39.998Z,21.25
2023-02-24T00:18:08.783Z,7.97
2023-02-24T00:20:37.261Z,10.35
2023-02-24T00:23:06.259Z,10.10
2023-02-24T00:25:35.529Z,13.60
2023-02-24T00:28:03.734Z,9.73
2023-02-24T00:30:33.186Z,8.70
2023-02-24T00:33:03.979Z,10.40
2023-02-24T00:35:32.359Z,10.27
2023-02-24T00:38:00.781Z,15.25
2023-02-24T00:40:30.802Z,13.75
2023-02-24T00:43:02.263Z,13.23
2023-02-24T00:45:33.927Z,15.88
2023-02-24T00:48:04.837Z,7.20
2023-02-24T00:50:33.193Z,4.05
2023-02-24T00:53:01.906Z,6.07
2023-02-24T00:55:36.224Z,9.55
2023-02-24T00:58:07.448Z,11.82
2023-02-24T01:00:37.500Z,7.57
2023-02-24T01:03:06.972Z,15.40
2023-02-24T01:05:37.355Z,12.77
2023-02-24T01:08:06.965Z,5.35
2023-02-24T01:10:35.570Z,10.65
2023-02-24T01:13:04.732Z,8.50
2023-02-24T01:15:32.762Z,8.52
2023-02-24T01:18:00.689Z,7.85
2023-02-24T01:20:30.618Z,10.68
2023-02-24T01:22:58.741Z,11.32
2023-02-24T01:25:31.311Z,11.73
2023-02-24T01:27:59.235Z,7.10
2023-02-24T01:30:31.347Z,8.05
2023-02-24T01:33:00.036Z,13.82
2023-02-24T01:35:31.679Z,7.97
2023-02-24T01:38:01.697Z,10.60
2023-02-24T01:40:30.147Z,10.15
2023-02-24T01:42:58.050Z,10.90
2023-02-24T01:45:28.700Z,14.18
2023-02-24T01:48:05.594Z,15.70
2023-02-24T01:50:36.782Z,17.55
2023-02-24T01:53:08.423Z,10.85
2023-02-24T01:55:43.146Z,8.77
2023-02-24T01:58:22.062Z,10.10
2023-02-24T02:00:50.033Z,8.70
2023-02-24T02:03:27.776Z,12.32
2023-02-24T02:06:01.077Z,8.02
2023-02-24T02:08:29.678Z,11.40
2023-02-24T02:11:03.732Z,19.02
2023-02-24T02:13:36.738Z,9.48
2023-02-24T02:16:20.737Z,10.13
2023-02-24T02:19:00.664Z,8.80
2023-02-24T02:22:02.492Z,9.90
2023-02-24T02:24:44.646Z,15.05
2023-02-24T02:27:23.624Z,10.98
2023-02-24T02:30:14.080Z,15.23
2023-02-24T02:33:21.523Z,10.30
2023-02-24T02:36:00.545Z,11.50
2023-02-24T02:38:37.417Z,12.40
2023-02-24T02:41:15.784Z,13.43
2023-02-24T02:43:50.098Z,11.30
2023-02-24T02:46:34.814Z,12.65
2023-02-24T02:49:12.062Z,12.70
2023-02-24T02:51:45.785Z,21.92
2023-02-24T02:54:20.541Z,6.88
2023-02-24T02:56:53.890Z,18.08
2023-02-24T02:59:28.718Z,9.63
2023-02-24T03:02:11.468Z,15.43
2023-02-24T03:04:43.461Z,7.47
2023-02-24T03:07:17.753Z,22.73
2023-02-24T03:09:50.968Z,15.57
2023-02-24T03:12:23.421Z,8.68
2023-02-24T03:14:59.157Z,10.88
2023-02-24T03:17:31.222Z,7.28
2023-02-24T03:20:15.046Z,12.85
2023-02-24T03:22:49.907Z,9.95
2023-02-24T03:25:24.118Z,5.72
2023-02-24T03:27:57.470Z,10.45
2023-02-24T03:30:30.284Z,7.40
2023-02-24T03:33:05.661Z,11.45
2023-02-24T03:35:38.995Z,10.05
2023-02-24T03:38:10.446Z,13.35
2023-02-24T03:40:39.706Z,15.50
2023-02-24T03:43:17.002Z,9.75
2023-02-24T03:45:46.614Z,14.40
2023-02-24T03:48:16.386Z,14.13
2023-02-24T03:50:46.717Z,14.98
2023-02-24T03:53:46.705Z,15.85
2023-02-24T03:56:26.759Z,11.32
2023-02-24T03:59:12.850Z,12.88
2023-02-24T04:01:51.833Z,5.40
2023-02-24T04:04:31.205Z,10.18
2023-02-24T04:07:16.366Z,10.57
2023-02-24T04:09:51.973Z,23.65
2023-02-24T04:12:27.694Z,16.60
2023-02-24T04:15:09.161Z,9.10
2023-02-24T04:17:43.433Z,9.32
2023-02-24T04:20:16.564Z,12.63
2023-02-24T04:22:54.568Z,16.60
2023-02-24T04:25:27.731Z,7.18
2023-02-24T04:28:00.752Z,7.72
2023-02-24T04:30:32.276Z,14.57
2023-02-24T04:33:00.284Z,12.13
2023-02-24T04:35:29.084Z,12.90
2023-02-24T04:37:58.256Z,18.15
2023-02-24T04:40:28.467Z,7.68
2023-02-24T04:42:56.664Z,14.82
2023-02-24T04:45:26.927Z,18.42
2023-02-24T04:48:00.997Z,7.72
2023-02-24T04:50:33.905Z,9.38
2023-02-24T04:53:06.811Z,14.43
2023-02-24T04:55:40.221Z,16.00
2023-02-24T05:00:40.417Z,12.13
2023-02-24T05:03:11.778Z,6.65
2023-02-24T05:05:42.857Z,10.25
2023-02-24T05:08:12.173Z,17.20
2023-02-24T05:10:45.225Z,18.88
2023-02-24T05:13:15.156Z,7.95
2023-02-24T05:15:44.858Z,13.10
2023-02-24T05:18:17.036Z,9.70
2023-02-24T05:21:04.855Z,6.22
2023-02-24T05:23:34.972Z,8.50
2023-02-24T05:26:09.010Z,9.55
2023-02-24T05:28:37.942Z,9.90
2023-02-24T05:31:08.882Z,11.65
2023-02-24T05:33:37.785Z,14.88
2023-02-24T05:36:08.601Z,6.38
2023-02-24T05:38:38.249Z,15.10
2023-02-24T05:41:15.155Z,15.50
2023-02-24T05:43:44.650Z,9.38
2023-02-24T05:46:13.569Z,11.18
2023-02-24T05:48:41.813Z,17.88
2023-02-24T05:51:12.006Z,18.30
2023-02-24T05:53:41.699Z,19.42
2023-02-24T05:56:11.460Z,14.63
2023-02-24T05:58:40.282Z,8.27
2023-02-24T06:01:16.211Z,15.68
2023-02-24T06:03:47.880Z,17.40
2023-02-24T06:06:16.519Z,17.52
2023-02-24T06:08:50.109Z,9.23
2023-02-24T06:11:21.611Z,14.82
2023-02-24T06:13:49.876Z,12.48
2023-02-24T06:16:19.885Z,13.45
2023-02-24T06:18:50.522Z,19.67
2023-02-24T06:21:18.728Z,8.70
2023-02-24T06:23:46.966Z,14.98
2023-02-24T06:26:19.610Z,21.63
2023-02-24T06:28:49.983Z,18.73
2023-02-24T06:31:18.139Z,20.05
2023-02-24T06:33:46.259Z,18.15
2023-02-24T06:36:15.464Z,13.18
2023-02-24T06:38:44.184Z,24.25
2023-02-24T06:41:12.295Z,17.55
2023-02-24T06:43:43.298Z,23.02
2023-02-24T06:46:15.358Z,15.85
2023-02-24T06:48:43.878Z,19.63
2023-02-24T06:51:15.560Z,24.85
2023-02-24T06:53:44.517Z,25.52
2023-02-24T06:56:15.819Z,22.52
2023-02-24T06:58:45.106Z,17.25
2023-02-24T07:01:16.256Z,20.35
2023-02-24T07:04:03.502Z,22.52
2023-02-24T07:06:34.480Z,18.95
2023-02-24T07:09:07.068Z,28.38
2023-02-24T07:11:36.470Z,25.40
2023-02-24T07:14:05.831Z,30.10
2023-02-24T07:16:37.132Z,22.08
2023-02-24T07:19:11.232Z,25.33
2023-02-24T07:21:40.448Z,27.45
2023-02-24T07:24:08.989Z,25.05
2023-02-24T07:26:41.567Z,19.38
2023-02-24T07:29:11.349Z,16.90
2023-02-24T07:31:42.887Z,20.45
2023-02-24T07:34:15.024Z,18.92
2023-02-24T07:36:49.253Z,26.83
2023-02-24T07:39:18.408Z,27.63
2023-02-24T07:41:49.698Z,38.78
2023-02-24T07:44:19.064Z,23.60
2023-02-24T07:46:50.066Z,21.23
2023-02-24T07:49:20.706Z,14.43
2023-02-24T07:51:52.633Z,21.58
2023-02-24T07:54:21.494Z,26.33
2023-02-24T07:56:56.748Z,26.45
2023-02-24T07:59:25.482Z,27.95
2023-02-24T08:01:55.871Z,24.88
2023-02-24T08:04:26.747Z,28.15
2023-02-24T08:06:57.483Z,19.48
2023-02-24T08:09:44.437Z,13.27
2023-02-24T08:12:17.732Z,33.17
2023-02-24T08:14:51.358Z,19.92
2023-02-24T08:17:22.661Z,16.17
2023-02-24T08:20:15.543Z,20.38
2023-02-24T08:22:47.140Z,18.45
2023-02-24T08:25:18.902Z,27.85
2023-02-24T08:28:06.807Z,17.90
2023-02-24T08:30:39.944Z,27.20
2023-02-24T08:33:11.725Z,22.00
2023-02-24T08:35:45.151Z,17.13
2023-02-24T08:38:19.482Z,19.83
2023-02-24T08:40:55.759Z,21.67
2023-02-24T08:43:33.692Z,15.50
2023-02-24T08:46:10.227Z,21.67
2023-02-24T08:48:43.512Z,16.60
2023-02-24T08:51:17.671Z,9.13
2023-02-24T08:53:46.811Z,17.88
2023-02-24T08:56:24.088Z,15.70
2023-02-24T08:58:57.115Z,24.90
2023-02-24T09:01:34.509Z,20.55
2023-02-24T09:04:07.927Z,17.60
2023-02-24T09:09:20.249Z,16.50
2023-02-24T09:11:50.481Z,14.75
2023-02-24T09:14:27.278Z,17.20
2023-02-24T09:17:03.981Z,17.83
2023-02-24T09:19:55.316Z,14.00
2023-02-24T09:22:57.189Z,14.10
2023-02-24T09:25:40.597Z,11.70
2023-02-24T09:28:10.990Z,14.35
2023-02-24T09:30:51.252Z,21.63
2023-02-24T09:33:23.040Z,13.95
2023-02-24T09:36:20.711Z,21.95
2023-02-24T09:39:08.952Z,29.63
2023-02-24T09:41:57.266Z,24.58
2023-02-24T09:44:33.237Z,22.27
2023-02-24T09:47:13.530Z,30.33
2023-02-24T09:49:49.141Z,26.48
2023-02-24T09:52:20.205Z,26.75
2023-02-24T09:55:10.797Z,39.58
2023-02-24T09:58:12.029Z,35.47
2023-02-24T10:00:45.049Z,46.58
2023-02-24T10:03:41.498Z,38.38
2023-02-24T10:06:20.761Z,42.60
2023-02-24T10:08:57.070Z,31.00
2023-02-24T10:11:33.855Z,42.83
2023-02-24T10:14:05.584Z,35.22
2023-02-24T10:16:44.402Z,49.75
2023-02-24T10:19:24.273Z,51.78
2023-02-24T10:22:02.956Z,36.83
2023-02-24T10:24:39.183Z,54.33
2023-02-24T10:27:17.701Z,43.75
2023-02-24T10:30:05.617Z,42.75
2023-02-24T10:32:42.461Z,37.28
2023-02-24T10:35:16.953Z,46.10
2023-02-24T10:37:45.648Z,36.05
2023-02-24T10:40:26.595Z,45.97
2023-02-24T10:43:10.692Z,32.50
2023-02-24T10:45:45.138Z,68.03
2023-02-24T10:48:40.218Z,45.92
2023-02-24T10:51:19.762Z,62.58
2023-02-24T10:54:09.688Z,43.47
2023-02-24T10:56:44.844Z,43.88
2023-02-24T10:59:41.213Z,46.13
2023-02-24T11:02:29.596Z,38.63
2023-02-24T11:05:25.062Z,38.53
2023-02-24T11:08:15.834Z,53.53
2023-02-24T11:10:58.751Z,54.15
2023-02-24T11:13:46.029Z,34.65
2023-02-24T11:16:31.726Z,58.53
2023-02-24T11:18:59.853Z,59.88
2023-02-24T11:21:28.896Z,41.22
2023-02-24T11:24:02.748Z,36.35
2023-02-24T11:26:37.184Z,49.25
2023-02-24T11:29:35.828Z,45.10
2023-02-24T11:32:25.515Z,45.78
2023-02-24T11:34:57.999Z,46.45
2023-02-24T11:37:36.045Z,47.67
2023-02-24T11:40:10.034Z,38.55
2023-02-24T11:42:46.322Z,45.25
2023-02-24T11:45:29.658Z,44.72
2023-02-24T11:48:03.916Z,46.58
2023-02-24T11:50:43.657Z,39.47
2023-02-24T11:53:23.918Z,37.28
2023-02-24T11:55:59.994Z,26.20
2023-02-24T11:58:36.357Z,24.48
2023-02-24T12:01:14.459Z,17.67
2023-02-24T12:03:51.528Z,16.85
2023-02-24T12:06:24.457Z,23.02
2023-02-24T12:08:58.476Z,26.55
2023-02-24T12:11:35.385Z,29.38
2023-02-24T12:14:16.077Z,40.15
2023-02-24T12:16:49.272Z,37.67
2023-02-24T12:19:24.287Z,20.60
2023-02-24T12:21:57.160Z,29.98
2023-02-24T12:24:25.369Z,20.45
2023-02-24T12:27:03.764Z,34.00
2023-02-24T12:29:48.697Z,33.83
2023-02-24T12:32:27.725Z,25.55
2023-02-24T12:35:07.345Z,33.05
2023-02-24T12:37:59.615Z,17.42
2023-02-24T12:40:42.328Z,14.02
2023-02-24T12:43:22.396Z,14.15
2023-02-24T12:45:55.013Z,16.80
2023-02-24T12:48:39.969Z,16.57
2023-02-24T12:51:13.000Z,19.08
2023-02-24T12:53:47.780Z,11.73
2023-02-24T12:56:22.638Z,11.82
2023-02-24T12:58:53.837Z,18.25
2023-02-24T13:01:29.198Z,12.27
2023-02-24T13:04:30.431Z,5.40
2023-02-24T13:07:09.848Z,17.83
2023-02-24T13:09:48.187Z,10.73
2023-02-24T13:12:20.901Z,8.00
2023-02-24T13:14:51.855Z,12.13
2023-02-24T13:17:22.498Z,10.80
2023-02-24T13:19:56.026Z,8.70
2023-02-24T13:22:30.056Z,10.35
2023-02-24T13:25:14.399Z,9.43
2023-02-24T13:27:44.667Z,6.78
2023-02-24T13:30:28.885Z,11.32
2023-02-24T13:33:03.005Z,12.77
2023-02-24T13:35:35.202Z,14.07
2023-02-24T13:38:11.780Z,11.00
2023-02-24T13:40:39.967Z,15.80
2023-02-24T13:43:24.309Z,8.25
2023-02-24T13:45:58.159Z,7.53
2023-02-24T13:48:51.258Z,4.90
2023-02-24T13:51:48.965Z,15.40
2023-02-24T13:54:33.054Z,18.30
2023-02-24T13:57:26.711Z,13.45
2023-02-24T14:00:11.453Z,12.38
2023-02-24T14:02:44.665Z,11.85
2023-02-24T14:05:20.505Z,15.55
2023-02-24T14:07:53.459Z,16.10
2023-02-24T14:10:25.287Z,12.73
2023-02-24T14:13:02.243Z,20.45
2023-02-24T14:15:31.087Z,23.77
2023-02-24T14:18:01.578Z,21.65
2023-02-24T14:20:33.143Z,18.27
2023-02-24T14:23:03.948Z,14.50
2023-02-24T14:25:36.927Z,23.92
2023-02-24T14:28:05.837Z,20.13
2023-02-24T14:30:36.750Z,21.50
2023-02-24T14:33:07.126Z,26.10
2023-02-24T14:35:37.076Z,20.45
2023-02-24T14:38:07.088Z,13.65
2023-02-24T14:40:35.657Z,16.20
2023-02-24T14:43:03.845Z,18.75
2023-02-24T14:45:31.872Z,29.20
2023-02-24T14:47:59.832Z,23.42
2023-02-24T14:50:31.413Z,26.20
2023-02-24T14:53:03.616Z,32.28
2023-02-24T14:55:38.712Z,32.05
2023-02-24T14:58:13.625Z,23.45
2023-02-24T15:00:48.992Z,38.80
2023-02-24T15:03:23.532Z,22.20
2023-02-24T15:05:55.761Z,30.73
2023-02-24T15:08:32.840Z,19.45
2023-02-24T15:11:07.381Z,29.55
2023-02-24T15:13:40.654Z,22.25
2023-02-24T15:16:15.329Z,28.05
2023-02-24T15:18:43.634Z,16.07
2023-02-24T15:21:21.461Z,13.35
2023-02-24T15:23:49.787Z,11.30
2023-02-24T15:26:30.708Z,7.18
2023-02-24T15:29:01.458Z,14.00
2023-02-24T15:31:30.499Z,11.52
2023-02-24T15:34:01.016Z,14.02
2023-02-24T15:36:32.628Z,14.85
2023-02-24T15:39:03.880Z,12.25
2023-02-24T15:41:42.457Z,18.92
2023-02-24T15:44:26.017Z,18.92
2023-02-24T15:46:54.436Z,25.48
2023-02-24T15:49:22.725Z,31.08
2023-02-24T15:51:53.006Z,17.17
2023-02-24T15:54:27.487Z,15.32
2023-02-24T15:56:58.946Z,9.07
2023-02-24T15:59:27.158Z,13.43
2023-02-24T16:01:55.773Z,10.63
2023-02-24T16:04:24.642Z,12.93
2023-02-24T16:06:55.840Z,15.00
2023-02-24T16:09:32.214Z,19.73
2023-02-24T16:12:04.791Z,15.65
2023-02-24T16:14:34.091Z,24.43
2023-02-24T16:17:06.168Z,16.90
2023-02-24T16:19:33.986Z,26.27
2023-02-24T16:22:02.316Z,22.90
2023-02-24T16:24:30.511Z,15.48
2023-02-24T16:26:58.630Z,25.23
2023-02-24T16:29:28.378Z,20.90
2023-02-24T16:31:56.595Z,25.17
2023-02-24T16:34:24.607Z,27.05
2023-02-24T16:36:52.739Z,22.13
2023-02-24T16:39:20.809Z,26.05
2023-02-24T16:41:48.928Z,26.50
2023-02-24T16:44:16.949Z,24.10
2023-02-24T16:46:46.610Z,29.83
2023-02-24T16:49:19.393Z,35.00
2023-02-24T16:51:47.661Z,22.38
2023-02-24T16:54:15.710Z,33.28
2023-02-24T16:56:45.305Z,33.95
2023-02-24T16:59:13.382Z,44.90
2023-02-24T17:01:41.560Z,35.10
2023-02-24T17:04:11.658Z,27.92
2023-02-24T17:06:42.285Z,17.67
2023-02-24T17:09:10.180Z,24.25
2023-02-24T17:11:38.342Z,24.25
2023-02-24T17:14:06.275Z,19.70
2023-02-24T17:16:34.228Z,20.77
2023-02-24T17:19:02.429Z,29.65
2023-02-24T17:21:31.863Z,23.10
2023-02-24T17:23:59.991Z,15.40
2023-02-24T17:26:28.348Z,22.73
2023-02-24T17:28:56.610Z,17.98
2023-02-24T17:31:24.636Z,20.17
2023-02-24T17:33:52.660Z,20.88
2023-02-24T17:36:21.081Z,19.30
2023-02-24T17:38:50.916Z,15.85
2023-02-24T17:41:18.923Z,19.45
2023-02-24T17:43:46.925Z,16.50
2023-02-24T17:46:14.927Z,23.42
2023-02-24T17:48:43.039Z,17.77
2023-02-24T17:51:14.405Z,40.55
2023-02-24T17:53:42.454Z,21.38
2023-02-24T17:56:12.408Z,21.67
2023-02-24T17:58:40.564Z,28.92
2023-02-24T18:01:09.002Z,26.20
2023-02-24T18:03:37.627Z,32.47
2023-02-24T18:06:08.000Z,33.72
2023-02-24T18:08:37.620Z,30.08
2023-02-24T18:11:07.080Z,30.63
2023-02-24T18:13:36.514Z,44.20
2023-02-24T18:16:10.332Z,32.22
2023-02-24T18:18:39.247Z,45.00
2023-02-24T18:21:08.559Z,38.45
2023-02-24T18:23:38.247Z,32.53
2023-02-24T18:26:08.144Z,40.28
2023-02-24T18:28:37.913Z,21.55
2023-02-24T18:31:12.865Z,28.88
2023-02-24T18:33:41.236Z,21.50
2023-02-24T18:36:10.573Z,30.15
2023-02-24T18:38:38.847Z,15.55
2023-02-24T18:41:09.089Z,31.02
2023-02-24T18:43:38.792Z,22.10
2023-02-24T18:46:09.900Z,30.33
2023-02-24T18:48:38.018Z,17.98
2023-02-24T18:51:06.924Z,21.88
2023-02-24T18:53:36.962Z,28.08
2023-02-24T18:56:07.714Z,25.20
2023-02-24T18:58:37.087Z,20.98
2023-02-24T19:01:13.668Z,22.10
2023-02-24T19:03:42.594Z,27.48
2023-02-24T19:06:11.435Z,22.15
2023-02-24T19:08:40.419Z,26.48
2023-02-24T19:11:10.465Z,34.38
2023-02-24T19:13:38.469Z,33.80
2023-02-24T19:16:08.034Z,20.10
2023-02-24T19:18:37.976Z,22.67
2023-02-24T19:21:07.102Z,25.70
2023-02-24T19:23:35.435Z,17.17
2023-02-24T19:26:03.529Z,21.83
2023-02-24T19:28:31.499Z,27.15
2023-02-24T19:30:59.878Z,24.75
2023-02-24T19:33:28.165Z,26.38
2023-02-24T19:36:00.630Z,22.60
2023-02-24T19:38:28.482Z,37.70
2023-02-24T19:40:59.149Z,35.47
2023-02-24T19:43:27.288Z,24.15
2023-02-24T19:45:55.912Z,40.35
2023-02-24T19:48:23.982Z,36.70
2023-02-24T19:50:52.090Z,37.95
2023-02-24T19:53:21.263Z,26.15
2023-02-24T19:55:50.547Z,20.60
2023-02-24T19:58:18.668Z,19.23
2023-02-24T20:00:48.016Z,24.88
2023-02-24T20:03:16.416Z,19.08
2023-02-24T20:05:44.529Z,24.52
2023-02-24T20:08:12.632Z,20.25
2023-02-24T20:10:42.334Z,23.50
2023-02-24T20:13:10.387Z,19.02
2023-02-24T20:15:38.312Z,26.00
2023-02-24T20:18:08.746Z,19.67
2023-02-24T20:20:37.569Z,24.42
2023-02-24T20:23:05.818Z,32.88
2023-02-24T20:25:34.108Z,24.40
2023-02-24T20:28:04.062Z,23.20
2023-02-24T20:30:32.174Z,26.92
2023-02-24T20:33:00.157Z,26.23
2023-02-24T20:35:28.521Z,23.80
2023-02-24T20:37:56.637Z,17.45
2023-02-24T20:40:24.960Z,18.40
2023-02-24T20:42:53.472Z,16.08
2023-02-24T20:45:23.215Z,28.30
2023-02-24T20:47:51.121Z,34.47
2023-02-24T20:50:19.629Z,30.42
2023-02-24T20:52:48.040Z,20.30
2023-02-24T20:55:16.484Z,27.15
2023-02-24T20:57:44.529Z,34.97
2023-02-24T21:00:15.432Z,26.65
2023-02-24T21:02:44.879Z,28.45
2023-02-24T21:05:20.383Z,31.63
2023-02-24T21:07:49.736Z,21.55
2023-02-24T21:10:18.263Z,21.35
2023-02-24T21:12:47.811Z,20.05
2023-02-24T21:15:15.887Z,20.42
2023-02-24T21:17:45.189Z,17.08
2023-02-24T21:20:14.695Z,15.75
2023-02-24T21:22:45.460Z,22.63
2023-02-24T21:25:13.527Z,15.95
2023-02-24T21:27:44.179Z,14.82
2023-02-24T21:30:13.486Z,26.15
2023-02-24T21:32:41.508Z,25.20
2023-02-24T21:35:11.034Z,26.83
2023-02-24T21:37:39.896Z,32.33
2023-02-24T21:40:12.092Z,26.15
2023-02-24T21:42:43.798Z,25.52
2023-02-24T21:45:13.980Z,30.95
2023-02-24T21:47:42.549Z,34.13
2023-02-24T21:50:16.094Z,28.30
2023-02-24T21:52:46.637Z,36.97
2023-02-24T21:55:15.174Z,25.38
2023-02-24T21:57:45.551Z,24.67
2023-02-24T22:00:19.550Z,28.20
2023-02-24T22:02:49.333Z,13.55
2023-02-24T22:05:20.392Z,34.65
2023-02-24T22:07:49.937Z,27.02
2023-02-24T22:10:20.086Z,25.60
2023-02-24T22:12:48.458Z,24.98
2023-02-24T22:15:16.801Z,21.30
2023-02-24T22:17:44.725Z,27.85
2023-02-24T22:20:15.088Z,19.20
2023-02-24T22:22:44.430Z,35.33
2023-02-24T22:25:12.580Z,27.23
2023-02-24T22:27:40.602Z,28.65
2023-02-24T22:30:10.218Z,18.05
2023-02-24T22:32:38.255Z,27.67
2023-02-24T22:35:07.328Z,25.40
2023-02-24T22:37:35.507Z,21.42
2023-02-24T22:40:05.751Z,18.38
2023-02-24T22:42:33.731Z,17.40
2023-02-24T22:45:02.161Z,22.95
2023-02-24T22:47:30.249Z,34.25
2023-02-24T22:49:58.359Z,25.85
2023-02-24T22:52:26.852Z,30.25
2023-02-24T22:54:55.635Z,23.73
2023-02-24T22:57:25.044Z,38.40
2023-02-24T22:59:53.501Z,30.38
2023-02-24T23:02:21.547Z,49.85
2023-02-24T23:04:49.840Z,36.20
2023-02-24T23:07:17.685Z,37.22
2023-02-24T23:09:52.760Z,43.25
2023-02-24T23:12:22.219Z,39.05
2023-02-24T23:14:51.653Z,48.55
2023-02-24T23:17:20.629Z,51.97
2023-02-24T23:19:48.678Z,40.05
2023-02-24T23:22:18.990Z,49.58
2023-02-24T23:24:46.843Z,49.20
2023-02-24T23:27:14.834Z,44.47
2023-02-24T23:29:42.749Z,59.83
2023-02-24T23:32:12.142Z,47.15
2023-02-24T23:34:41.368Z,46.92
2023-02-24T23:37:12.038Z,44.72
2023-02-24T23:39:40.327Z,53.70
2023-02-24T23:42:08.407Z,41.90
2023-02-24T23:44:38.968Z,49.53
2023-02-24T23:47:07.071Z,44.00
2023-02-24T23:49:47.832Z,45.53
2023-02-24T23:52:16.598Z,37.05
2023-02-24T23:54:44.553Z,36.80
2023-02-24T23:57:12.410Z,39.00
2023-02-24T23:59:40.373Z,32.97
